الصفحة الرئيسية
METAR-TAF:

METAR-TAF

مطار :

مطار لامبيدوزا

لامبيدوسا, إيطاليا

دائرة عرض: 35-30N, خط طول: 012-36E, ارتفاع: 16 متر

مراقبة الطقس الحالي

تاريخ ووقت الإصدار 31 دقيقة قبل الساعة 04:50UTC
ريح 7 عقدة من الجنوب
درجة الحرارة 20°درجة مئوية
الرطوبة 60%
ضغط 1019 hPa
الرؤية 10 كم أو أكثر

METAR: LICD 290450Z AUTO 17007KT 9999 NCD 20/12 Q1019

زمن: 07:21 (05:21 UTC)

توقعات

تاريخ ووقت الإصدار 6ساعات و 21 دقيقة قبل الساعة 23:00UTC
التوقعات صالحة من29 الساعة 00 UTC إلى 29 الساعة 24 UTC
ريح 10 عقدة من الجنوب/الجنوب الشرقي
الرؤية 10 كم أو أكثر
الغيوم لا تقل 1500 م ولا وجود لمزنة ركامية السحاب الأسود

TAF: LICD 282300Z 2900/2924 16010KT CAVOK

أرصاد الطقس والتوقعات من أكثر من 4000 مطار (تقارير الطقس للمطار METAR والتنبؤ بالطقس بالمطارTAF).

المحطات المتاحة هي النقط الصفراء والحمراء على الخريطة.

حرك المؤشر فوق النقطة لمعرفة اسم المحطة.

ثم انقر لمعرفة أرصاد وتوقعات الطقس.

لتغيير الخارطة: اضغط على الأزرار الخضراء مع رمز الصليب الأسود للتكبير. على الزر الأخضر مع شرطة للتصغير، أو على الأسهم الخضراء للخرائط المجاورة.


METAR-TAF: